Time;durP1;ratioP1;P1;durP2;ratioP2;P2;SDS_P1;SDS_P2;PMS_P1;PMS_P2;Temp;Humidity;BMP_temperature;BMP_pressure;BME280_temperature;BME280_humidity;BME280_pressure;Samples;Min_cycle;Max_cycle;Signal;HPM_P1;HPM_P2
2023/09/29 00:00:21;;;;;;;7.30;4.30;;;;;;;20.19;67.64;95314.88;5073918;28;20473;-82
2023/09/29 00:02:50;;;;;;;13.47;4.50;;;;;;;20.24;66.76;95324.03;5074267;28;20442;-82
2023/09/29 00:05:18;;;;;;;13.07;4.07;;;;;;;20.27;67.34;95315.66;5073970;28;20528;-83
2023/09/29 00:07:45;;;;;;;6.50;4.30;;;;;;;20.31;66.19;95319.63;5073871;28;20723;-82
2023/09/29 00:10:15;;;;;;;15.57;5.27;;;;;;;20.32;66.22;95313.28;5073585;28;20490;-82
2023/09/29 00:12:44;;;;;;;8.93;4.47;;;;;;;20.34;66.24;95319.25;5073497;28;20448;-82
2023/09/29 00:15:11;;;;;;;15.33;4.80;;;;;;;20.30;66.22;95320.63;5038143;28;20924;-83
2023/09/29 00:17:39;;;;;;;6.53;4.77;;;;;;;20.29;66.32;95310.97;5073376;28;20786;-82
2023/09/29 00:20:12;;;;;;;11.33;4.70;;;;;;;20.27;65.34;95323.66;5073718;28;20436;-82
2023/09/29 00:22:43;;;;;;;10.27;4.33;;;;;;;20.20;66.21;95317.38;5073535;28;20450;-83
2023/09/29 00:25:10;;;;;;;4.40;3.97;;;;;;;20.18;66.08;95316.72;5073482;28;20439;-83
2023/09/29 00:27:37;;;;;;;11.13;4.57;;;;;;;20.15;66.33;95317.06;5073410;28;20798;-82
2023/09/29 00:30:05;;;;;;;8.30;4.57;;;;;;;20.10;66.85;95306.13;5072485;28;20493;-82
2023/09/29 00:32:32;;;;;;;5.87;3.93;;;;;;;20.10;67.11;95311.47;5073054;28;20474;-81
2023/09/29 00:34:59;;;;;;;17.63;5.60;;;;;;;20.07;67.00;95317.16;5073142;28;20428;-82
2023/09/29 00:37:26;;;;;;;9.40;4.00;;;;;;;20.01;67.66;95313.34;5073091;28;20814;-82
2023/09/29 00:39:55;;;;;;;10.37;4.73;;;;;;;20.02;67.01;95306.19;5073137;28;20457;-82
2023/09/29 00:42:22;;;;;;;8.63;4.47;;;;;;;19.95;67.28;95310.56;5073319;28;20887;-82
2023/09/29 00:44:49;;;;;;;9.50;4.57;;;;;;;19.91;67.93;95310.09;5072858;28;20439;-81
2023/09/29 00:47:16;;;;;;;8.40;5.50;;;;;;;19.87;67.77;95315.94;5072716;28;20978;-82
2023/09/29 00:49:43;;;;;;;7.87;4.87;;;;;;;19.87;67.52;95308.78;5073296;28;20962;-82
2023/09/29 00:52:12;;;;;;;13.47;5.63;;;;;;;19.85;67.68;95309.97;5037577;28;20452;-82
2023/09/29 00:54:38;;;;;;;6.60;5.03;;;;;;;19.85;67.45;95307.31;5072692;28;20476;-82
2023/09/29 00:57:07;;;;;;;11.97;4.97;;;;;;;19.85;67.47;95312.63;5072668;28;20453;-81
2023/09/29 00:59:35;;;;;;;8.50;4.87;;;;;;;19.87;67.92;95310.63;5072998;28;20441;-83
2023/09/29 01:02:05;;;;;;;7.13;3.90;;;;;;;19.82;68.44;95307.66;5072791;28;20451;-82
2023/09/29 01:04:32;;;;;;;7.10;4.53;;;;;;;19.72;68.38;95305.25;5072501;28;20452;-82
2023/09/29 01:06:59;;;;;;;7.97;4.13;;;;;;;19.69;67.44;95302.94;5072513;28;20441;-83
2023/09/29 01:09:26;;;;;;;8.10;4.67;;;;;;;19.71;68.08;95306.25;5072516;28;20480;-82
2023/09/29 01:11:53;;;;;;;10.70;4.80;;;;;;;19.66;67.75;95312.09;5072539;28;20476;-82
2023/09/29 01:14:21;;;;;;;7.57;4.40;;;;;;;19.60;66.67;95310.13;5072617;28;20447;-82
2023/09/29 01:16:50;;;;;;;7.17;4.70;;;;;;;19.56;66.85;95305.31;5037615;28;20435;-82
2023/09/29 01:19:18;;;;;;;11.63;4.73;;;;;;;19.51;68.42;95305.81;5072713;28;20451;-83
2023/09/29 01:21:45;;;;;;;7.83;4.70;;;;;;;19.49;68.27;95306.00;5072325;28;20445;-83
2023/09/29 01:24:14;;;;;;;11.20;5.30;;;;;;;19.45;68.13;95302.03;5072745;28;20448;-83
2023/09/29 01:26:44;;;;;;;9.50;4.57;;;;;;;19.35;68.34;95297.91;5072423;28;20535;-82
2023/09/29 01:29:12;;;;;;;7.13;4.90;;;;;;;19.21;69.37;95301.31;5072110;28;20812;-82
2023/09/29 01:31:41;;;;;;;7.83;4.80;;;;;;;19.19;69.08;95312.94;5072386;28;20534;-82
2023/09/29 01:34:08;;;;;;;5.73;4.50;;;;;;;19.22;69.07;95311.78;5072368;28;20927;-82
2023/09/29 01:36:36;;;;;;;8.50;5.00;;;;;;;19.23;69.63;95309.94;5072154;28;20919;-83
2023/09/29 01:39:05;;;;;;;5.47;3.90;;;;;;;19.27;69.53;95312.06;5053479;28;20523;-82
2023/09/29 01:41:34;;;;;;;11.20;4.70;;;;;;;19.32;68.83;95303.56;5072295;28;21014;-82
2023/09/29 01:44:00;;;;;;;8.07;5.20;;;;;;;19.32;68.88;95311.56;5072161;28;20454;-82
2023/09/29 01:46:29;;;;;;;10.80;4.87;;;;;;;19.33;68.95;95308.72;5072329;28;20496;-82
2023/09/29 01:48:59;;;;;;;8.80;4.70;;;;;;;19.32;69.68;95312.38;5072335;28;20485;-83
2023/09/29 01:51:29;;;;;;;6.70;4.57;;;;;;;19.30;69.50;95311.72;5072211;28;20966;-81
2023/09/29 01:53:56;;;;;;;9.47;4.57;;;;;;;19.30;69.45;95314.38;5072265;28;20448;-82
2023/09/29 01:56:23;;;;;;;8.03;4.50;;;;;;;19.24;68.60;95312.44;5072216;28;20466;-82
2023/09/29 01:58:52;;;;;;;10.43;5.27;;;;;;;19.22;69.86;95317.09;5071852;28;20444;-82
2023/09/29 02:01:18;;;;;;;11.80;4.57;;;;;;;19.21;69.91;95314.59;5071658;28;20448;-82
2023/09/29 02:03:48;;;;;;;6.83;4.70;;;;;;;19.15;70.05;95313.47;5072195;28;20444;-82
2023/09/29 02:06:15;;;;;;;9.43;4.77;;;;;;;19.14;69.40;95311.81;5072279;28;20476;-83
2023/09/29 02:08:42;;;;;;;5.23;4.43;;;;;;;19.16;69.61;95315.97;5071861;28;20453;-83
2023/09/29 02:11:09;;;;;;;9.27;4.47;;;;;;;19.15;69.33;95314.31;5071709;28;20482;-82
2023/09/29 02:13:36;;;;;;;10.73;5.07;;;;;;;19.16;68.76;95315.13;5072082;28;20440;-83
2023/09/29 02:16:11;;;;;;;14.43;4.57;;;;;;;19.10;69.08;95316.66;5071672;28;20440;-82
2023/09/29 02:18:38;;;;;;;5.20;4.67;;;;;;;19.07;69.41;95316.97;5071989;28;20893;-82
2023/09/29 02:21:08;;;;;;;6.13;4.37;;;;;;;19.08;69.32;95313.34;5071922;28;20446;-81
2023/09/29 02:23:35;;;;;;;6.83;4.30;;;;;;;19.08;69.62;95315.13;5071628;28;20958;-83
2023/09/29 02:26:02;;;;;;;7.60;4.80;;;;;;;19.03;69.72;95318.31;5071675;28;20946;-82
2023/09/29 02:28:30;;;;;;;16.07;4.43;;;;;;;19.03;69.08;95313.00;5071927;28;20444;-83
2023/09/29 02:30:58;;;;;;;10.97;4.90;;;;;;;19.08;69.37;95320.47;5037098;28;20477;-82
2023/09/29 02:33:29;;;;;;;7.83;3.97;;;;;;;19.12;69.57;95319.97;5071734;28;20946;-82
2023/09/29 02:35:56;;;;;;;9.13;5.40;;;;;;;19.10;70.13;95316.66;5037195;28;20976;-82
2023/09/29 02:38:23;;;;;;;9.03;4.50;;;;;;;19.07;68.82;95318.81;5071608;28;21005;-82
2023/09/29 02:40:50;;;;;;;11.93;5.00;;;;;;;19.03;69.40;95328.97;5071715;28;20484;-82
2023/09/29 02:43:17;;;;;;;12.13;4.87;;;;;;;18.99;69.40;95332.13;5071182;28;20566;-82
2023/09/29 02:45:45;;;;;;;12.73;4.13;;;;;;;18.99;70.00;95324.97;5071366;28;20467;-82
2023/09/29 02:48:12;;;;;;;13.03;4.57;;;;;;;18.94;70.21;95326.50;5071849;28;20442;-82
2023/09/29 02:50:40;;;;;;;12.37;4.67;;;;;;;18.76;71.20;95330.19;5071289;28;20492;-81
2023/09/29 02:53:08;;;;;;;8.60;4.23;;;;;;;18.38;73.36;95329.06;5071404;28;20463;-82
2023/09/29 02:55:34;;;;;;;8.90;4.73;;;;;;;17.99;76.36;95336.84;5075341;28;20548;-82
2023/09/29 02:58:04;;;;;;;11.10;3.80;;;;;;;17.82;77.34;95330.69;5075258;28;20455;-81
2023/09/29 03:00:31;;;;;;;11.60;4.80;;;;;;;17.61;77.80;95341.72;5074833;28;20543;-82
2023/09/29 03:02:58;;;;;;;13.17;6.37;;;;;;;17.60;77.89;95333.91;5074966;28;20465;-82
2023/09/29 03:05:27;;;;;;;9.57;4.90;;;;;;;17.58;78.53;95339.38;5075243;28;20485;-82
2023/09/29 03:07:56;;;;;;;11.60;4.87;;;;;;;17.65;78.91;95336.94;5074878;28;20441;-82
2023/09/29 03:10:26;;;;;;;7.80;4.70;;;;;;;17.80;78.03;95340.63;5074765;28;20910;-82
2023/09/29 03:12:56;;;;;;;7.27;4.40;;;;;;;17.91;77.39;95336.81;5075214;28;20441;-82
2023/09/29 03:15:23;;;;;;;14.43;5.37;;;;;;;17.99;77.29;95338.69;5040347;28;20436;-82
2023/09/29 03:17:52;;;;;;;5.93;4.80;;;;;;;18.05;76.68;95338.03;5074620;28;20443;-82
2023/09/29 03:20:19;;;;;;;10.30;4.63;;;;;;;18.14;75.61;95342.31;5055627;28;21072;-81
2023/09/29 03:22:48;;;;;;;7.33;5.13;;;;;;;18.23;75.27;95341.34;5075006;28;20490;-82
2023/09/29 03:25:18;;;;;;;8.30;4.90;;;;;;;18.32;74.90;95335.03;5074542;28;20804;-82
2023/09/29 03:27:46;;;;;;;12.83;5.60;;;;;;;18.39;74.65;95329.88;5074434;28;20447;-83
2023/09/29 03:30:16;;;;;;;8.73;5.80;;;;;;;18.44;75.26;95333.69;5043491;28;20490;-82
2023/09/29 03:32:43;;;;;;;6.77;5.60;;;;;;;18.49;73.26;95339.31;5074948;28;20489;-82
2023/09/29 03:35:11;;;;;;;10.30;4.83;;;;;;;18.39;71.83;95332.53;5074494;28;20434;-81
2023/09/29 03:37:39;;;;;;;8.90;5.20;;;;;;;18.29;71.95;95340.69;5074420;28;20933;-82
2023/09/29 03:40:08;;;;;;;7.40;5.60;;;;;;;18.20;72.21;95345.16;5074428;28;20924;-82
2023/09/29 03:42:37;;;;;;;7.20;4.37;;;;;;;18.09;72.26;95349.97;5074859;28;20503;-82
2023/09/29 03:45:06;;;;;;;6.97;4.63;;;;;;;17.97;72.70;95345.97;5073881;28;20444;-81
2023/09/29 03:47:34;;;;;;;6.50;4.20;;;;;;;17.88;73.09;95342.47;5073784;28;20523;-82
2023/09/29 03:50:01;;;;;;;8.70;5.00;;;;;;;17.82;73.36;95341.31;5074238;28;20513;-82
2023/09/29 03:52:29;;;;;;;17.77;4.97;;;;;;;17.75;73.45;95334.16;5074055;28;20449;-82
2023/09/29 03:54:56;;;;;;;12.47;4.50;;;;;;;17.72;73.50;95347.75;5074248;28;20437;-82
2023/09/29 03:57:23;;;;;;;11.27;5.10;;;;;;;17.69;73.95;95342.78;5074559;28;20454;-82
2023/09/29 03:59:52;;;;;;;9.60;4.00;;;;;;;17.67;74.41;95337.63;5074726;28;20451;-81
2023/09/29 04:02:20;;;;;;;10.70;5.30;;;;;;;17.65;74.19;95344.91;5055449;28;20441;-80
2023/09/29 04:04:47;;;;;;;9.73;5.10;;;;;;;17.63;74.33;95345.03;5039081;28;20523;-81
2023/09/29 04:07:14;;;;;;;10.03;4.50;;;;;;;17.61;74.28;95340.88;5073968;28;20511;-80
2023/09/29 04:09:41;;;;;;;10.40;3.87;;;;;;;17.60;73.72;95339.22;5073920;28;20502;-79
2023/09/29 04:12:08;;;;;;;11.70;5.30;;;;;;;17.84;80.25;95339.31;5073801;28;20481;-77
2023/09/29 04:14:35;;;;;;;9.27;4.90;;;;;;;18.27;75.12;95343.50;5054990;28;20815;-80
2023/09/29 04:17:04;;;;;;;9.43;4.57;;;;;;;18.25;72.51;95339.38;5048149;28;20452;-80
2023/09/29 04:19:32;;;;;;;11.23;5.63;;;;;;;18.29;72.21;95339.84;5054019;28;20473;-80
2023/09/29 04:21:59;;;;;;;10.40;4.40;;;;;;;18.31;72.00;95336.03;5054223;28;20505;-78
2023/09/29 04:24:27;;;;;;;12.50;5.50;;;;;;;18.34;72.14;95343.66;5054381;28;20923;-80
2023/09/29 04:26:53;;;;;;;7.20;4.90;;;;;;;18.39;71.88;95337.84;5053981;28;20458;-79
2023/09/29 04:29:20;;;;;;;10.63;5.27;;;;;;;18.34;72.39;95341.00;5054340;28;20449;-80
2023/09/29 04:31:47;;;;;;;12.60;5.30;;;;;;;18.30;72.87;95333.53;5053960;28;21010;-77
2023/09/29 04:34:15;;;;;;;6.80;5.37;;;;;;;18.37;73.23;95340.69;5035042;28;20812;-78
2023/09/29 04:36:42;;;;;;;17.23;5.50;;;;;;;18.43;72.09;95334.69;5062083;28;20444;-77
2023/09/29 04:39:09;;;;;;;11.50;6.07;;;;;;;18.50;71.36;95341.03;5073445;28;20443;-77
2023/09/29 04:41:37;;;;;;;8.73;5.63;;;;;;;18.60;71.50;95343.50;5038517;28;20533;-77
2023/09/29 04:44:05;;;;;;;15.77;5.10;;;;;;;18.57;72.17;95349.97;5073888;28;20537;-78
2023/09/29 04:46:33;;;;;;;20.03;5.60;;;;;;;18.64;70.82;95349.31;5038352;28;20483;-77
2023/09/29 04:49:03;;;;;;;15.73;5.77;;;;;;;18.74;69.41;95361.44;5073572;28;20920;-77
2023/09/29 04:51:31;;;;;;;17.10;8.27;;;;;;;18.82;71.49;95353.47;5073474;28;20585;-77
2023/09/29 04:53:58;;;;;;;9.43;4.93;;;;;;;18.91;72.16;95354.28;5037849;28;20552;-78
2023/09/29 04:56:25;;;;;;;5.50;4.97;;;;;;;18.92;69.39;95369.22;5073308;28;20446;-77
2023/09/29 04:58:52;;;;;;;16.77;5.73;;;;;;;18.80;68.74;95362.63;5073858;28;20446;-78
2023/09/29 05:01:19;;;;;;;9.63;5.63;;;;;;;18.67;69.89;95367.59;5072674;28;20934;-77
2023/09/29 05:03:47;;;;;;;27.27;6.53;;;;;;;18.26;71.63;95380.88;5072468;28;20450;-77
2023/09/29 05:06:14;;;;;;;18.63;5.60;;;;;;;18.07;72.98;95373.22;5053024;28;20444;-76
2023/09/29 05:08:43;;;;;;;18.73;6.60;;;;;;;17.91;74.21;95374.81;5073088;28;20911;-76
2023/09/29 05:11:09;;;;;;;12.17;6.33;;;;;;;17.72;74.45;95377.78;5073004;28;20493;-76
2023/09/29 05:13:36;;;;;;;7.97;6.27;;;;;;;17.65;75.49;95379.41;5072959;28;20835;-76
2023/09/29 05:16:03;;;;;;;11.03;6.10;;;;;;;17.62;75.49;95382.34;5072850;28;20449;-76
2023/09/29 05:18:30;;;;;;;16.93;6.63;;;;;;;17.11;76.16;95381.50;5072610;28;20533;-76
2023/09/29 05:20:57;;;;;;;13.30;6.70;;;;;;;17.15;75.39;95366.94;5073010;28;20445;-77
2023/09/29 05:23:24;;;;;;;8.83;6.30;;;;;;;17.07;76.31;95380.16;5072668;28;20847;-78
2023/09/29 05:25:52;;;;;;;14.77;6.63;;;;;;;16.86;76.82;95377.03;5037520;28;20440;-78
2023/09/29 05:28:19;;;;;;;16.60;6.80;;;;;;;17.02;77.23;95375.28;5072554;28;20506;-78
2023/09/29 05:30:54;;;;;;;14.93;7.10;;;;;;;17.10;75.49;95385.13;5071907;28;20492;-77
2023/09/29 05:33:21;;;;;;;15.20;7.60;;;;;;;16.94;75.44;95396.47;5072503;28;20452;-78
2023/09/29 05:35:48;;;;;;;25.80;6.93;;;;;;;16.94;76.06;95385.88;5072458;28;20441;-76
2023/09/29 05:38:15;;;;;;;15.03;7.20;;;;;;;17.08;77.24;95387.13;5072688;28;20523;-77
2023/09/29 05:40:42;;;;;;;10.90;7.10;;;;;;;17.01;75.82;95392.19;5072528;28;20926;-79
2023/09/29 05:43:10;;;;;;;14.63;6.83;;;;;;;17.02;75.74;95388.56;5073088;28;20445;-78
2023/09/29 05:45:37;;;;;;;20.33;9.17;;;;;;;17.21;79.30;95389.31;5072683;28;20476;-79
2023/09/29 05:48:05;;;;;;;9.87;7.03;;;;;;;17.25;76.77;95388.84;5072736;28;20527;-78
2023/09/29 05:50:33;;;;;;;11.57;6.20;;;;;;;17.17;78.67;95398.59;5072297;28;20477;-78
2023/09/29 05:53:00;;;;;;;14.10;7.43;;;;;;;17.22;79.08;95389.16;5072906;28;20449;-78
2023/09/29 05:55:30;;;;;;;14.20;7.30;;;;;;;17.36;77.98;95385.09;5072564;28;20441;-76
2023/09/29 05:58:00;;;;;;;8.87;6.30;;;;;;;17.55;77.84;95384.81;5028120;28;20461;-76
2023/09/29 06:00:31;;;;;;;15.73;7.10;;;;;;;17.94;77.59;95387.81;5020831;28;20452;-76
2023/09/29 06:03:01;;;;;;;17.83;7.23;;;;;;;18.45;75.44;95391.16;5058777;28;20449;-76
2023/09/29 06:05:31;;;;;;;11.50;6.53;;;;;;;18.95;72.58;95381.34;5053604;28;20449;-77
2023/09/29 06:08:03;;;;;;;13.53;6.43;;;;;;;19.51;70.93;95385.66;5072283;28;20535;-81
2023/09/29 06:10:30;;;;;;;11.23;7.43;;;;;;;19.98;67.10;95382.97;5022943;28;20440;-76
2023/09/29 06:12:59;;;;;;;23.47;7.50;;;;;;;20.41;65.30;95378.88;5058528;28;20444;-76
2023/09/29 06:15:28;;;;;;;15.97;8.60;;;;;;;20.88;63.59;95385.81;5065258;28;20464;-78
2023/09/29 06:17:56;;;;;;;27.73;8.30;;;;;;;21.29;61.61;95383.59;5053130;28;20475;-76
2023/09/29 06:20:30;;;;;;;16.93;6.60;;;;;;;21.63;61.06;95391.03;5066741;28;20468;-77
2023/09/29 06:22:57;;;;;;;16.90;7.00;;;;;;;21.72;60.19;95385.59;5072061;28;20533;-76
2023/09/29 06:25:26;;;;;;;19.27;7.57;;;;;;;21.56;59.09;95387.44;5072332;28;20446;-76
2023/09/29 06:27:53;;;;;;;16.90;8.43;;;;;;;21.64;59.03;95381.16;5072363;28;20445;-77
2023/09/29 06:30:20;;;;;;;18.57;8.70;;;;;;;21.87;58.62;95387.22;5075618;28;20451;-76
2023/09/29 06:32:48;;;;;;;22.57;8.73;;;;;;;22.18;57.60;95378.97;5075377;28;20485;-76
2023/09/29 06:35:16;;;;;;;25.20;9.50;;;;;;;22.46;57.09;95376.34;5076181;28;20447;-76
2023/09/29 06:37:47;;;;;;;15.30;8.73;;;;;;;22.62;55.93;95377.97;5075926;28;20452;-76
2023/09/29 06:40:13;;;;;;;21.67;8.20;;;;;;;22.70;55.78;95383.16;5075656;28;20533;-76
2023/09/29 06:42:40;;;;;;;12.27;6.50;;;;;;;22.77;54.63;95380.53;5075820;28;20450;-76
2023/09/29 06:45:09;;;;;;;19.57;7.33;;;;;;;22.73;54.39;95377.44;5075894;28;20454;-76
2023/09/29 06:47:36;;;;;;;16.87;5.97;;;;;;;22.73;55.00;95381.94;5075752;28;21014;-76
2023/09/29 06:50:03;;;;;;;15.73;6.23;;;;;;;22.80;55.83;95374.81;5040340;28;20440;-77
2023/09/29 06:52:32;;;;;;;12.27;6.30;;;;;;;22.93;55.31;95382.16;5075435;28;20489;-76
2023/09/29 06:54:59;;;;;;;16.00;6.70;;;;;;;22.78;56.14;95372.31;5075731;28;20449;-81
2023/09/29 06:57:26;;;;;;;17.27;7.03;;;;;;;22.98;55.20;95379.72;5075296;28;20451;-77
2023/09/29 06:59:53;;;;;;;18.83;7.40;;;;;;;23.06;55.00;95385.75;5075093;28;20859;-76
2023/09/29 07:02:19;;;;;;;12.97;7.37;;;;;;;23.09;55.92;95377.31;5075300;28;20454;-77
2023/09/29 07:04:47;;;;;;;22.13;7.87;;;;;;;23.27;56.87;95392.06;5075489;28;20442;-77
2023/09/29 07:07:14;;;;;;;14.03;7.50;;;;;;;23.35;57.44;95386.56;5075364;28;20497;-77
2023/09/29 07:09:43;;;;;;;20.47;8.00;;;;;;;23.37;54.88;95384.50;5075199;28;20473;-77
2023/09/29 07:12:10;;;;;;;21.67;9.03;;;;;;;23.35;54.86;95395.41;5074364;28;20982;-79
2023/09/29 07:14:37;;;;;;;20.83;7.93;;;;;;;23.29;56.30;95393.53;5074644;28;20795;-77
2023/09/29 07:17:03;;;;;;;38.53;9.50;;;;;;;23.37;57.20;95384.50;5039166;28;20460;-77
2023/09/29 07:19:31;;;;;;;23.07;9.00;;;;;;;23.47;57.50;95385.00;5038842;28;20436;-78
2023/09/29 07:21:58;;;;;;;22.43;8.67;;;;;;;23.79;56.08;95392.41;5055582;28;20448;-78
2023/09/29 07:24:27;;;;;;;24.57;8.70;;;;;;;23.88;55.20;95393.06;5074193;28;20853;-77
2023/09/29 07:26:59;;;;;;;20.50;10.23;;;;;;;23.60;56.15;95386.94;5074677;28;20443;-78
2023/09/29 07:29:25;;;;;;;24.03;8.80;;;;;;;23.63;54.92;95384.69;5040052;28;20447;-78
2023/09/29 07:31:55;;;;;;;19.33;7.60;;;;;;;23.49;55.71;95388.31;5055307;28;21015;-78
2023/09/29 07:34:27;;;;;;;23.03;8.13;;;;;;;23.39;56.92;95388.63;5074091;28;20448;-77
2023/09/29 07:36:56;;;;;;;30.73;10.13;;;;;;;23.28;56.58;95391.88;5073992;28;20444;-79
2023/09/29 07:39:23;;;;;;;25.73;9.50;;;;;;;23.03;55.59;95396.03;5073961;28;20831;-76
2023/09/29 07:41:50;;;;;;;23.73;9.30;;;;;;;22.81;57.82;95398.72;5074368;28;20439;-76
2023/09/29 07:44:18;;;;;;;13.83;7.90;;;;;;;23.01;58.35;95400.75;5073744;28;20445;-74
2023/09/29 07:46:46;;;;;;;36.10;9.07;;;;;;;22.72;57.79;95394.50;5074089;28;20471;-74
2023/09/29 07:49:14;;;;;;;13.10;8.80;;;;;;;22.72;55.86;95399.84;5073612;28;20493;-74
2023/09/29 07:51:41;;;;;;;34.83;8.10;;;;;;;22.83;56.30;95394.00;5073958;28;20573;-74
2023/09/29 07:54:09;;;;;;;23.27;8.20;;;;;;;23.07;55.86;95397.28;5074013;28;20450;-74
2023/09/29 07:56:36;;;;;;;14.57;8.53;;;;;;;23.06;54.79;95393.78;5073872;28;20473;-74
2023/09/29 07:59:02;;;;;;;15.60;8.83;;;;;;;23.13;55.61;95394.69;5038259;28;20443;-74
2023/09/29 08:01:31;;;;;;;21.73;8.53;;;;;;;23.31;52.64;95396.84;5038224;28;20444;-75
2023/09/29 08:03:58;;;;;;;16.10;8.60;;;;;;;23.66;51.16;95396.88;5073510;28;20801;-74
2023/09/29 08:06:25;;;;;;;15.53;7.40;;;;;;;23.95;51.18;95393.91;5073708;28;20436;-74
2023/09/29 08:08:52;;;;;;;17.70;6.40;;;;;;;24.10;45.20;95394.59;5073486;28;20448;-75
2023/09/29 08:11:19;;;;;;;15.43;4.90;;;;;;;24.37;42.69;95394.69;5073586;28;20448;-75
2023/09/29 08:13:46;;;;;;;7.07;4.07;;;;;;;24.65;37.45;95386.50;5073611;28;20439;-74
2023/09/29 08:16:13;;;;;;;5.70;3.70;;;;;;;24.84;37.14;95388.34;5038282;28;20890;-75
2023/09/29 08:18:41;;;;;;;9.40;5.07;;;;;;;24.94;37.00;95383.41;5073458;28;20449;-74
2023/09/29 08:21:08;;;;;;;6.73;4.33;;;;;;;24.94;39.04;95378.03;5073094;28;20946;-75
2023/09/29 08:23:35;;;;;;;5.67;3.70;;;;;;;24.66;37.25;95388.16;5073245;28;20436;-74
2023/09/29 08:26:03;;;;;;;8.50;4.13;;;;;;;24.63;39.31;95378.66;5037990;28;20480;-74
2023/09/29 08:28:29;;;;;;;11.70;4.53;;;;;;;24.61;39.53;95385.25;5073747;28;20452;-77
2023/09/29 08:30:56;;;;;;;11.40;4.87;;;;;;;24.51;40.16;95385.63;5073981;28;20448;-75
2023/09/29 08:33:27;;;;;;;10.23;4.77;;;;;;;24.47;39.04;95381.72;5072796;28;20492;-75
2023/09/29 08:35:56;;;;;;;10.67;4.03;;;;;;;24.36;38.84;95385.00;5073718;28;20448;-79
2023/09/29 08:38:23;;;;;;;7.57;4.63;;;;;;;24.22;38.51;95381.41;5073367;28;21038;-75
2023/09/29 08:40:55;;;;;;;13.10;5.17;;;;;;;24.09;37.87;95374.16;5064027;28;20490;-75
2023/09/29 08:43:23;;;;;;;10.23;4.10;;;;;;;24.02;37.61;95380.53;5018186;28;20446;-75
2023/09/29 08:45:50;;;;;;;8.17;4.23;;;;;;;23.94;39.96;95376.16;5068753;28;20476;-75
2023/09/29 08:48:19;;;;;;;8.63;4.30;;;;;;;23.86;39.30;95381.72;5061531;28;20867;-75
2023/09/29 08:50:55;;;;;;;8.67;4.53;;;;;;;23.94;42.07;95381.53;5053612;28;20449;-75
2023/09/29 08:53:25;;;;;;;12.10;4.80;;;;;;;24.08;40.76;95383.25;5068912;28;20484;-74
2023/09/29 08:55:55;;;;;;;8.60;4.13;;;;;;;23.79;39.02;95379.00;5072311;28;20459;-75
2023/09/29 08:58:24;;;;;;;9.73;4.40;;;;;;;23.48;40.48;95376.75;5072450;28;20456;-74
2023/09/29 09:00:51;;;;;;;14.07;4.37;;;;;;;23.50;40.26;95376.56;5055494;28;20500;-75
2023/09/29 09:03:19;;;;;;;5.70;4.10;;;;;;;23.52;39.49;95376.38;5069971;28;20436;-75
2023/09/29 09:05:47;;;;;;;10.03;3.93;;;;;;;23.39;39.25;95375.25;5060806;28;20530;-76
2023/09/29 09:08:13;;;;;;;10.37;4.57;;;;;;;23.54;42.29;95379.66;5061496;28;20837;-74
2023/09/29 09:10:43;;;;;;;12.13;4.37;;;;;;;23.67;44.03;95375.22;5061165;28;20448;-75
2023/09/29 09:13:09;;;;;;;11.73;4.87;;;;;;;23.92;43.19;95377.41;5070063;28;20483;-75
2023/09/29 09:15:36;;;;;;;9.63;5.23;;;;;;;24.15;43.69;95372.53;5071723;28;20447;-75
2023/09/29 09:18:04;;;;;;;7.40;4.33;;;;;;;24.31;40.60;95371.38;5071742;28;20441;-75
2023/09/29 09:20:30;;;;;;;9.83;4.27;;;;;;;24.30;38.75;95369.72;5072061;28;20441;-76
2023/09/29 09:22:59;;;;;;;5.83;3.70;;;;;;;24.21;37.58;95368.19;5071828;28;20437;-76
2023/09/29 09:25:35;;;;;;;8.40;4.60;;;;;;;24.12;39.62;95369.44;5036927;28;20445;-76
2023/09/29 09:28:04;;;;;;;15.90;5.27;;;;;;;24.06;38.77;95374.56;5071783;28;20961;-76
2023/09/29 09:30:35;;;;;;;10.70;3.57;;;;;;;24.03;38.13;95374.16;5071677;28;20444;-75
2023/09/29 09:33:05;;;;;;;11.63;4.23;;;;;;;24.00;37.89;95366.50;5071790;28;20511;-76
2023/09/29 09:35:32;;;;;;;8.60;4.87;;;;;;;23.97;37.24;95372.25;5071907;28;20498;-76
2023/09/29 09:38:01;;;;;;;6.43;3.90;;;;;;;23.81;37.33;95377.97;5072112;28;20444;-75
2023/09/29 09:40:28;;;;;;;9.70;4.70;;;;;;;23.79;37.42;95370.13;5071438;28;20444;-76
2023/09/29 09:42:58;;;;;;;11.37;4.50;;;;;;;23.62;38.38;95371.50;5071721;28;20440;-76
2023/09/29 09:45:34;;;;;;;6.53;4.70;;;;;;;23.62;38.27;95366.13;5071770;28;20467;-76
2023/09/29 09:48:05;;;;;;;6.63;4.20;;;;;;;23.67;37.78;95366.34;5071722;28;20521;-76
2023/09/29 09:50:36;;;;;;;7.57;4.07;;;;;;;23.79;38.12;95368.28;5071594;28;20454;-76
2023/09/29 09:53:05;;;;;;;6.80;4.40;;;;;;;23.97;38.34;95369.56;5071449;28;20492;-76
2023/09/29 09:55:38;;;;;;;9.40;4.17;;;;;;;24.17;37.60;95372.31;5071656;28;20440;-76
2023/09/29 09:58:09;;;;;;;11.23;6.47;;;;;;;24.31;37.51;95374.06;5072070;28;20514;-75
2023/09/29 10:00:40;;;;;;;9.43;5.20;;;;;;;24.47;37.09;95375.50;5071304;28;20440;-76
2023/09/29 10:03:12;;;;;;;7.13;4.20;;;;;;;24.60;37.25;95360.28;5073698;28;20428;-76
2023/09/29 10:05:41;;;;;;;10.63;4.50;;;;;;;24.80;38.73;95364.81;5075449;28;20506;-76
2023/09/29 10:08:10;;;;;;;11.30;4.37;;;;;;;24.81;35.09;95367.28;5075421;28;20437;-75
2023/09/29 10:10:40;;;;;;;9.03;4.60;;;;;;;24.93;38.56;95360.28;5075280;28;20437;-76
2023/09/29 10:13:11;;;;;;;11.40;4.07;;;;;;;25.01;35.55;95364.63;5075545;28;20484;-76
2023/09/29 10:15:39;;;;;;;7.47;3.63;;;;;;;25.08;40.70;95360.06;5075698;28;20448;-78
2023/09/29 10:18:17;;;;;;;5.33;3.47;;;;;;;25.16;36.92;95356.38;5075477;28;20803;-78
2023/09/29 10:20:46;;;;;;;9.43;4.20;;;;;;;25.12;36.41;95350.56;5075490;28;20440;-79
2023/09/29 10:23:15;;;;;;;6.10;4.20;;;;;;;25.10;37.88;95351.81;5075361;28;20487;-79
2023/09/29 10:25:44;;;;;;;6.23;4.17;;;;;;;25.00;35.26;95352.25;5056457;28;20437;-78
2023/09/29 10:28:12;;;;;;;10.60;5.10;;;;;;;24.87;34.73;95339.63;5075656;28;20429;-76
2023/09/29 10:30:42;;;;;;;8.53;4.73;;;;;;;24.79;36.67;95339.81;5075262;28;20428;-75
2023/09/29 10:33:11;;;;;;;8.37;4.43;;;;;;;24.67;35.60;95338.81;5075043;28;20488;-75
2023/09/29 10:35:45;;;;;;;10.43;4.80;;;;;;;24.49;37.53;95333.22;5074800;28;21332;-75
2023/09/29 10:38:23;;;;;;;14.63;4.70;;;;;;;24.34;38.20;95344.97;5074418;28;20992;-75
2023/09/29 10:40:50;;;;;;;13.30;4.93;;;;;;;24.33;37.90;95321.84;5074763;28;20459;-75
2023/09/29 10:43:18;;;;;;;4.97;3.73;;;;;;;24.34;42.88;95325.38;5074624;28;20927;-74
2023/09/29 10:45:47;;;;;;;14.20;4.43;;;;;;;24.46;40.85;95323.72;5074714;28;20476;-75
2023/09/29 10:48:14;;;;;;;6.30;4.77;;;;;;;24.52;37.60;95317.53;5074627;28;20447;-74
2023/09/29 10:50:42;;;;;;;14.10;4.60;;;;;;;24.54;38.60;95320.81;5075067;28;20444;-74
2023/09/29 10:53:09;;;;;;;4.93;4.43;;;;;;;24.65;42.35;95309.50;5039710;28;20488;-74
2023/09/29 10:55:47;;;;;;;12.63;5.43;;;;;;;24.78;38.77;95314.00;5074818;28;20448;-74
2023/09/29 10:58:16;;;;;;;5.70;4.10;;;;;;;24.94;41.18;95296.66;5074359;28;20947;-74
2023/09/29 11:00:46;;;;;;;4.40;4.00;;;;;;;25.06;38.87;95304.91;5074974;28;20793;-80
2023/09/29 11:03:15;;;;;;;7.53;4.37;;;;;;;25.18;40.32;95304.09;5074363;28;20646;-77
2023/09/29 11:05:50;;;;;;;11.63;5.07;;;;;;;25.34;37.84;95297.41;5074373;28;20433;-77
2023/09/29 11:08:20;;;;;;;9.67;5.30;;;;;;;25.42;39.25;95294.50;5074445;28;20443;-76
2023/09/29 11:11:00;;;;;;;6.67;4.90;;;;;;;25.49;36.30;95291.81;5074131;28;20801;-76
2023/09/29 11:13:28;;;;;;;12.07;5.67;;;;;;;25.51;35.99;95281.66;5074074;28;20472;-77
2023/09/29 11:15:56;;;;;;;10.17;5.20;;;;;;;25.57;35.67;95281.63;5073648;28;20445;-76
2023/09/29 11:18:29;;;;;;;9.13;5.80;;;;;;;25.55;35.08;95280.19;5073938;28;20823;-76
2023/09/29 11:20:57;;;;;;;9.30;5.20;;;;;;;25.53;35.95;95276.91;5074142;28;20447;-76
2023/09/29 11:23:24;;;;;;;15.93;5.90;;;;;;;25.41;35.07;95268.66;5074247;28;20943;-77
2023/09/29 11:25:54;;;;;;;8.20;5.70;;;;;;;25.17;34.91;95286.31;5074004;28;20448;-77
2023/09/29 11:28:21;;;;;;;12.33;6.00;;;;;;;24.92;35.07;95279.94;5073797;28;20924;-76
2023/09/29 11:30:48;;;;;;;7.43;5.00;;;;;;;24.76;36.38;95264.25;5074111;28;20449;-77
2023/09/29 11:33:16;;;;;;;11.20;5.37;;;;;;;24.55;36.77;95276.03;5074239;28;20476;-77